sensor_id;sensor_type;location;lat;lon;timestamp;pressure;altitude;pressure_sealevel;temperature;humidity
10688;BME280;5392;42.688;23.298;2023-07-31T00:00:07;57269.41;;;-144.48;97.43
10688;BME280;5392;42.688;23.298;2023-07-31T00:02:35;57229.75;;;-144.48;96.82
10688;BME280;5392;42.688;23.298;2023-07-31T00:05:02;57242.28;;;-144.48;96.52
10688;BME280;5392;42.688;23.298;2023-07-31T00:07:28;57240.19;;;-144.48;96.38
10688;BME280;5392;42.688;23.298;2023-07-31T00:09:55;57227.66;;;-144.48;96.60
10688;BME280;5392;42.688;23.298;2023-07-31T00:12:23;57242.28;;;-144.48;96.33
10688;BME280;5392;42.688;23.298;2023-07-31T00:14:50;57261.06;;;-144.48;95.53
10688;BME280;5392;42.688;23.298;2023-07-31T00:17:17;57263.16;;;-144.48;95.82
10688;BME280;5392;42.688;23.298;2023-07-31T00:19:44;57271.50;;;-144.48;97.07
10688;BME280;5392;42.688;23.298;2023-07-31T00:22:12;57261.06;;;-144.48;98.09
10688;BME280;5392;42.688;23.298;2023-07-31T00:24:39;57227.66;;;-144.48;99.89
10688;BME280;5392;42.688;23.298;2023-07-31T00:27:06;57284.00;;;-144.48;100.00
10688;BME280;5392;42.688;23.298;2023-07-31T00:29:32;57229.75;;;-144.48;100.00
10688;BME280;5392;42.688;23.298;2023-07-31T00:31:59;57219.31;;;-144.48;100.00
10688;BME280;5392;42.688;23.298;2023-07-31T00:34:26;57254.78;;;-144.48;100.00
10688;BME280;5392;42.688;23.298;2023-07-31T00:36:53;57263.16;;;-144.48;100.00
10688;BME280;5392;42.688;23.298;2023-07-31T00:39:20;57269.41;;;-144.48;100.00
10688;BME280;5392;42.688;23.298;2023-07-31T00:41:46;57277.75;;;-144.48;100.00
10688;BME280;5392;42.688;23.298;2023-07-31T00:44:13;57254.78;;;-144.48;100.00
10688;BME280;5392;42.688;23.298;2023-07-31T00:46:40;57248.53;;;-144.48;100.00
10688;BME280;5392;42.688;23.298;2023-07-31T00:49:08;57279.84;;;-144.48;100.00
10688;BME280;5392;42.688;23.298;2023-07-31T00:51:35;57275.66;;;-144.48;100.00
10688;BME280;5392;42.688;23.298;2023-07-31T00:54:02;57277.75;;;-144.48;100.00
10688;BME280;5392;42.688;23.298;2023-07-31T00:56:29;57244.34;;;-144.48;100.00
10688;BME280;5392;42.688;23.298;2023-07-31T00:58:57;57265.22;;;-144.48;100.00
10688;BME280;5392;42.688;23.298;2023-07-31T01:01:24;57309.06;;;-144.48;100.00
10688;BME280;5392;42.688;23.298;2023-07-31T01:03:52;57306.97;;;-144.48;100.00
10688;BME280;5392;42.688;23.298;2023-07-31T01:06:31;57250.63;;;-144.48;100.00
10688;BME280;5392;42.688;23.298;2023-07-31T01:09:04;57275.66;;;-144.48;100.00
10688;BME280;5392;42.688;23.298;2023-07-31T01:11:37;57300.72;;;-144.48;100.00
10688;BME280;5392;42.688;23.298;2023-07-31T01:14:05;57252.72;;;-144.48;100.00
10688;BME280;5392;42.688;23.298;2023-07-31T01:16:32;57244.34;;;-144.48;100.00
10688;BME280;5392;42.688;23.298;2023-07-31T01:18:59;57261.06;;;-144.48;100.00
10688;BME280;5392;42.688;23.298;2023-07-31T01:24:23;57240.19;;;-144.48;100.00
10688;BME280;5392;42.688;23.298;2023-07-31T01:27:06;57267.31;;;-144.48;100.00
10688;BME280;5392;42.688;23.298;2023-07-31T01:29:49;57269.41;;;-144.48;100.00
10688;BME280;5392;42.688;23.298;2023-07-31T01:32:22;57300.72;;;-144.48;100.00
10688;BME280;5392;42.688;23.298;2023-07-31T01:34:49;57256.88;;;-144.48;100.00
10688;BME280;5392;42.688;23.298;2023-07-31T01:37:16;57271.50;;;-144.48;100.00
10688;BME280;5392;42.688;23.298;2023-07-31T01:39:43;57242.28;;;-144.48;100.00
10688;BME280;5392;42.688;23.298;2023-07-31T01:42:10;57300.72;;;-144.48;100.00
10688;BME280;5392;42.688;23.298;2023-07-31T01:44:36;57254.78;;;-144.48;100.00
10688;BME280;5392;42.688;23.298;2023-07-31T01:47:03;57321.59;;;-144.48;100.00
10688;BME280;5392;42.688;23.298;2023-07-31T01:49:30;57250.63;;;-144.48;100.00
10688;BME280;5392;42.688;23.298;2023-07-31T01:51:56;57292.38;;;-144.48;100.00
10688;BME280;5392;42.688;23.298;2023-07-31T01:54:23;57261.06;;;-144.48;100.00
10688;BME280;5392;42.688;23.298;2023-07-31T01:56:50;57248.53;;;-144.48;100.00
10688;BME280;5392;42.688;23.298;2023-07-31T01:59:16;57290.28;;;-144.48;100.00
10688;BME280;5392;42.688;23.298;2023-07-31T02:01:43;57284.00;;;-144.48;100.00
10688;BME280;5392;42.688;23.298;2023-07-31T02:04:10;57269.41;;;-144.48;100.00
10688;BME280;5392;42.688;23.298;2023-07-31T02:06:38;57267.31;;;-144.48;100.00
10688;BME280;5392;42.688;23.298;2023-07-31T02:09:05;57284.00;;;-144.48;100.00
10688;BME280;5392;42.688;23.298;2023-07-31T02:11:32;57263.16;;;-144.48;100.00
10688;BME280;5392;42.688;23.298;2023-07-31T02:13:59;57296.53;;;-144.48;100.00
10688;BME280;5392;42.688;23.298;2023-07-31T02:16:44;57275.66;;;-144.48;100.00
10688;BME280;5392;42.688;23.298;2023-07-31T02:19:11;57271.50;;;-144.48;100.00
10688;BME280;5392;42.688;23.298;2023-07-31T02:21:37;57281.94;;;-144.48;100.00
10688;BME280;5392;42.688;23.298;2023-07-31T02:24:04;57284.00;;;-144.48;100.00
10688;BME280;5392;42.688;23.298;2023-07-31T02:26:31;57277.75;;;-144.48;100.00
10688;BME280;5392;42.688;23.298;2023-07-31T02:28:59;57286.09;;;-144.48;100.00
10688;BME280;5392;42.688;23.298;2023-07-31T02:31:25;57309.06;;;-144.48;100.00
10688;BME280;5392;42.688;23.298;2023-07-31T02:33:52;57286.09;;;-144.48;100.00
10688;BME280;5392;42.688;23.298;2023-07-31T02:36:19;57294.44;;;-144.48;100.00
10688;BME280;5392;42.688;23.298;2023-07-31T02:38:46;57265.22;;;-144.48;100.00
10688;BME280;5392;42.688;23.298;2023-07-31T02:41:12;57306.97;;;-144.48;100.00
10688;BME280;5392;42.688;23.298;2023-07-31T02:43:39;57254.78;;;-144.48;100.00
10688;BME280;5392;42.688;23.298;2023-07-31T02:46:06;57296.53;;;-144.48;100.00
10688;BME280;5392;42.688;23.298;2023-07-31T02:48:33;57290.28;;;-144.48;100.00
10688;BME280;5392;42.688;23.298;2023-07-31T02:50:59;57317.41;;;-144.48;100.00
10688;BME280;5392;42.688;23.298;2023-07-31T02:53:26;57296.53;;;-144.48;100.00
10688;BME280;5392;42.688;23.298;2023-07-31T02:55:53;57296.53;;;-144.48;100.00
10688;BME280;5392;42.688;23.298;2023-07-31T02:58:19;57284.00;;;-144.48;100.00
10688;BME280;5392;42.688;23.298;2023-07-31T03:00:46;57309.06;;;-144.48;100.00
10688;BME280;5392;42.688;23.298;2023-07-31T03:03:13;57300.72;;;-144.48;100.00
10688;BME280;5392;42.688;23.298;2023-07-31T03:05:39;57319.50;;;-144.48;100.00
10688;BME280;5392;42.688;23.298;2023-07-31T03:08:06;57279.84;;;-144.48;100.00
10688;BME280;5392;42.688;23.298;2023-07-31T03:10:33;57250.63;;;-144.48;100.00
10688;BME280;5392;42.688;23.298;2023-07-31T03:12:59;57256.88;;;-144.48;100.00
10688;BME280;5392;42.688;23.298;2023-07-31T03:15:26;57294.44;;;-144.48;100.00
10688;BME280;5392;42.688;23.298;2023-07-31T03:17:53;57286.09;;;-144.48;100.00
10688;BME280;5392;42.688;23.298;2023-07-31T03:20:20;57238.09;;;-144.48;100.00
10688;BME280;5392;42.688;23.298;2023-07-31T03:22:46;57248.53;;;-144.48;100.00
10688;BME280;5392;42.688;23.298;2023-07-31T03:25:13;57254.78;;;-144.48;100.00
10688;BME280;5392;42.688;23.298;2023-07-31T03:27:40;57261.06;;;-144.48;100.00
10688;BME280;5392;42.688;23.298;2023-07-31T03:30:07;57275.66;;;-144.48;100.00
10688;BME280;5392;42.688;23.298;2023-07-31T03:32:34;57277.75;;;-144.48;100.00
10688;BME280;5392;42.688;23.298;2023-07-31T03:35:01;57323.66;;;-144.48;100.00
10688;BME280;5392;42.688;23.298;2023-07-31T03:37:28;57292.38;;;-144.48;100.00
10688;BME280;5392;42.688;23.298;2023-07-31T03:39:55;57288.19;;;-144.48;100.00
10688;BME280;5392;42.688;23.298;2023-07-31T03:42:22;57273.56;;;-144.48;100.00
10688;BME280;5392;42.688;23.298;2023-07-31T03:44:49;57288.19;;;-144.48;100.00
10688;BME280;5392;42.688;23.298;2023-07-31T03:47:16;57258.97;;;-144.48;100.00
10688;BME280;5392;42.688;23.298;2023-07-31T03:49:43;57321.59;;;-144.48;100.00
10688;BME280;5392;42.688;23.298;2023-07-31T03:52:09;57300.72;;;-144.48;100.00
10688;BME280;5392;42.688;23.298;2023-07-31T03:54:36;57284.00;;;-144.48;100.00
10688;BME280;5392;42.688;23.298;2023-07-31T03:57:03;57269.41;;;-144.48;100.00
10688;BME280;5392;42.688;23.298;2023-07-31T03:59:30;57290.28;;;-144.48;100.00
10688;BME280;5392;42.688;23.298;2023-07-31T04:01:56;57279.84;;;-144.48;100.00
10688;BME280;5392;42.688;23.298;2023-07-31T04:04:23;57269.41;;;-144.48;100.00
10688;BME280;5392;42.688;23.298;2023-07-31T04:06:50;57294.44;;;-144.48;100.00
10688;BME280;5392;42.688;23.298;2023-07-31T04:09:17;57275.66;;;-144.48;100.00
10688;BME280;5392;42.688;23.298;2023-07-31T04:11:43;57317.41;;;-144.48;100.00
10688;BME280;5392;42.688;23.298;2023-07-31T04:14:10;57315.31;;;-144.48;100.00
10688;BME280;5392;42.688;23.298;2023-07-31T04:16:37;57300.72;;;-144.48;100.00
10688;BME280;5392;42.688;23.298;2023-07-31T04:19:04;57286.09;;;-144.48;100.00
10688;BME280;5392;42.688;23.298;2023-07-31T04:21:31;57271.50;;;-144.48;100.00
10688;BME280;5392;42.688;23.298;2023-07-31T04:23:57;57323.66;;;-144.48;100.00
10688;BME280;5392;42.688;23.298;2023-07-31T04:26:24;57302.81;;;-144.48;100.00
10688;BME280;5392;42.688;23.298;2023-07-31T04:28:51;57300.72;;;-144.48;100.00
10688;BME280;5392;42.688;23.298;2023-07-31T04:31:18;57281.94;;;-144.48;100.00
10688;BME280;5392;42.688;23.298;2023-07-31T04:33:44;57269.41;;;-144.48;100.00
10688;BME280;5392;42.688;23.298;2023-07-31T04:36:12;57277.75;;;-144.48;100.00
10688;BME280;5392;42.688;23.298;2023-07-31T04:38:38;57269.41;;;-144.48;100.00
10688;BME280;5392;42.688;23.298;2023-07-31T04:41:05;57281.94;;;-144.48;100.00
10688;BME280;5392;42.688;23.298;2023-07-31T04:43:32;57284.00;;;-144.48;100.00
10688;BME280;5392;42.688;23.298;2023-07-31T04:45:59;57267.31;;;-144.48;100.00
10688;BME280;5392;42.688;23.298;2023-07-31T04:48:25;57311.16;;;-144.48;100.00
10688;BME280;5392;42.688;23.298;2023-07-31T04:50:52;57271.50;;;-144.48;100.00
10688;BME280;5392;42.688;23.298;2023-07-31T04:53:19;57273.56;;;-144.48;90.82
10688;BME280;5392;42.688;23.298;2023-07-31T04:55:46;57286.09;;;-144.48;86.24
10688;BME280;5392;42.688;23.298;2023-07-31T04:58:12;57223.50;;;-144.48;86.55
10688;BME280;5392;42.688;23.298;2023-07-31T05:00:39;57277.75;;;-144.48;87.17
10688;BME280;5392;42.688;23.298;2023-07-31T05:03:06;57256.88;;;-144.48;88.05
10688;BME280;5392;42.688;23.298;2023-07-31T05:05:33;57263.16;;;-144.48;87.81
10688;BME280;5392;42.688;23.298;2023-07-31T05:08:00;57240.19;;;-144.48;87.18
10688;BME280;5392;42.688;23.298;2023-07-31T05:10:27;57256.88;;;-144.48;86.03
10688;BME280;5392;42.688;23.298;2023-07-31T05:12:54;57258.97;;;-144.48;80.51
10688;BME280;5392;42.688;23.298;2023-07-31T05:15:20;57240.19;;;-144.48;76.23
10688;BME280;5392;42.688;23.298;2023-07-31T05:17:47;57225.56;;;-144.48;77.52
10688;BME280;5392;42.688;23.298;2023-07-31T05:20:14;57217.22;;;-144.48;78.56
10688;BME280;5392;42.688;23.298;2023-07-31T05:22:41;57306.97;;;-144.48;79.93
10688;BME280;5392;42.688;23.298;2023-07-31T05:25:08;57258.97;;;-144.48;78.65
10688;BME280;5392;42.688;23.298;2023-07-31T05:27:34;57246.44;;;-144.48;78.65
10688;BME280;5392;42.688;23.298;2023-07-31T05:30:01;57258.97;;;-144.48;75.73
10688;BME280;5392;42.688;23.298;2023-07-31T05:32:28;57248.53;;;-144.48;76.41
10688;BME280;5392;42.688;23.298;2023-07-31T05:34:55;57248.53;;;-144.48;76.19
10688;BME280;5392;42.688;23.298;2023-07-31T05:37:22;57250.63;;;-144.48;68.50
10688;BME280;5392;42.688;23.298;2023-07-31T05:39:49;57240.19;;;-144.48;62.09
10688;BME280;5392;42.688;23.298;2023-07-31T05:42:16;57210.97;;;-144.48;57.00
10688;BME280;5392;42.688;23.298;2023-07-31T05:44:43;57213.06;;;-144.48;56.63
10688;BME280;5392;42.688;23.298;2023-07-31T05:47:10;57263.16;;;-144.48;62.61
10688;BME280;5392;42.688;23.298;2023-07-31T05:49:38;57240.19;;;-144.48;64.79
10688;BME280;5392;42.688;23.298;2023-07-31T05:52:05;57256.88;;;-144.48;67.50
10688;BME280;5392;42.688;23.298;2023-07-31T05:54:32;57250.63;;;-144.48;67.21
10688;BME280;5392;42.688;23.298;2023-07-31T05:56:59;57256.88;;;-144.48;61.51
10688;BME280;5392;42.688;23.298;2023-07-31T05:59:26;57269.41;;;-144.48;59.82
10688;BME280;5392;42.688;23.298;2023-07-31T06:01:53;57248.53;;;-144.48;59.06
10688;BME280;5392;42.688;23.298;2023-07-31T06:04:19;57229.75;;;-144.48;58.03
10688;BME280;5392;42.688;23.298;2023-07-31T06:06:50;57223.50;;;-144.48;54.85
10688;BME280;5392;42.688;23.298;2023-07-31T06:09:17;57227.66;;;-144.48;51.96
10688;BME280;5392;42.688;23.298;2023-07-31T06:11:44;57213.06;;;-144.48;51.06
10688;BME280;5392;42.688;23.298;2023-07-31T06:14:11;57183.84;;;-144.48;48.53
10688;BME280;5392;42.688;23.298;2023-07-31T06:16:38;57202.63;;;-144.48;47.94
10688;BME280;5392;42.688;23.298;2023-07-31T06:19:05;57194.25;;;-144.48;50.34
10688;BME280;5392;42.688;23.298;2023-07-31T06:21:33;57192.19;;;-144.48;51.44
10688;BME280;5392;42.688;23.298;2023-07-31T06:24:00;57238.09;;;-144.48;52.10
10688;BME280;5392;42.688;23.298;2023-07-31T06:26:27;57227.66;;;-144.48;51.44
10688;BME280;5392;42.688;23.298;2023-07-31T06:28:53;57242.28;;;-144.48;53.27
10688;BME280;5392;42.688;23.298;2023-07-31T06:31:20;57240.19;;;-144.48;54.69
10688;BME280;5392;42.688;23.298;2023-07-31T06:33:51;57244.34;;;-144.48;54.41
10688;BME280;5392;42.688;23.298;2023-07-31T06:36:18;57221.41;;;-144.48;55.60
10688;BME280;5392;42.688;23.298;2023-07-31T06:38:45;57244.34;;;-144.48;54.20
10688;BME280;5392;42.688;23.298;2023-07-31T06:41:11;57227.66;;;-144.48;53.25
10688;BME280;5392;42.688;23.298;2023-07-31T06:43:38;57200.53;;;-144.48;52.12
10688;BME280;5392;42.688;23.298;2023-07-31T06:46:05;57242.28;;;-144.48;50.27
10688;BME280;5392;42.688;23.298;2023-07-31T06:48:34;57225.56;;;-144.48;51.44
10688;BME280;5392;42.688;23.298;2023-07-31T06:51:01;57236.00;;;-144.48;50.98
10688;BME280;5392;42.688;23.298;2023-07-31T06:53:28;57204.69;;;-144.48;50.38
10688;BME280;5392;42.688;23.298;2023-07-31T06:55:55;57213.06;;;-144.48;50.79
10688;BME280;5392;42.688;23.298;2023-07-31T06:58:22;57223.50;;;-144.48;49.34
10688;BME280;5392;42.688;23.298;2023-07-31T07:00:49;57223.50;;;-144.48;49.88
10688;BME280;5392;42.688;23.298;2023-07-31T07:03:19;57190.09;;;-144.48;49.39
10688;BME280;5392;42.688;23.298;2023-07-31T07:05:46;57144.19;;;-144.48;47.46
10688;BME280;5392;42.688;23.298;2023-07-31T07:08:13;57188.00;;;-144.48;47.10
10688;BME280;5392;42.688;23.298;2023-07-31T07:10:41;57175.47;;;-144.48;47.24
10688;BME280;5392;42.688;23.298;2023-07-31T07:13:08;57208.88;;;-144.48;48.33
10688;BME280;5392;42.688;23.298;2023-07-31T07:15:34;57233.91;;;-144.48;50.03
10688;BME280;5392;42.688;23.298;2023-07-31T07:18:01;57196.34;;;-144.48;49.29
10688;BME280;5392;42.688;23.298;2023-07-31T07:20:28;57210.97;;;-144.48;48.57
10688;BME280;5392;42.688;23.298;2023-07-31T07:22:54;57231.84;;;-144.48;47.16
10688;BME280;5392;42.688;23.298;2023-07-31T07:25:21;57236.00;;;-144.48;47.80
10688;BME280;5392;42.688;23.298;2023-07-31T07:27:48;57221.41;;;-144.48;47.65
10688;BME280;5392;42.688;23.298;2023-07-31T07:30:15;57213.06;;;-144.48;47.41
10688;BME280;5392;42.688;23.298;2023-07-31T07:32:41;57202.63;;;-144.48;47.73
10688;BME280;5392;42.688;23.298;2023-07-31T07:35:08;57171.31;;;-144.48;47.08
10688;BME280;5392;42.688;23.298;2023-07-31T07:37:35;57179.66;;;-144.48;46.86
10688;BME280;5392;42.688;23.298;2023-07-31T07:40:02;57192.19;;;-144.48;46.95
10688;BME280;5392;42.688;23.298;2023-07-31T07:42:29;57206.78;;;-144.48;46.21
10688;BME280;5392;42.688;23.298;2023-07-31T07:44:55;57179.66;;;-144.48;46.21
10688;BME280;5392;42.688;23.298;2023-07-31T07:47:22;57183.84;;;-144.48;45.65
10688;BME280;5392;42.688;23.298;2023-07-31T07:49:49;57208.88;;;-144.48;46.90
10688;BME280;5392;42.688;23.298;2023-07-31T07:52:18;57206.78;;;-144.48;47.11
10688;BME280;5392;42.688;23.298;2023-07-31T07:54:45;57227.66;;;-144.48;47.18
10688;BME280;5392;42.688;23.298;2023-07-31T07:57:12;57171.31;;;-144.48;47.05
10688;BME280;5392;42.688;23.298;2023-07-31T07:59:40;57204.69;;;-144.48;46.37
10688;BME280;5392;42.688;23.298;2023-07-31T08:02:07;57231.84;;;-144.48;46.95
10688;BME280;5392;42.688;23.298;2023-07-31T08:04:34;57217.22;;;-144.48;46.50
10688;BME280;5392;42.688;23.298;2023-07-31T08:07:01;57192.19;;;-144.48;46.99
10688;BME280;5392;42.688;23.298;2023-07-31T08:09:28;57192.19;;;-144.48;47.22
10688;BME280;5392;42.688;23.298;2023-07-31T08:11:54;57175.47;;;-144.48;46.25
10688;BME280;5392;42.688;23.298;2023-07-31T08:14:23;57221.41;;;-144.48;48.10
10688;BME280;5392;42.688;23.298;2023-07-31T08:16:50;57206.78;;;-144.48;48.11
10688;BME280;5392;42.688;23.298;2023-07-31T08:19:17;57210.97;;;-144.48;47.75
10688;BME280;5392;42.688;23.298;2023-07-31T08:21:44;57244.34;;;-144.48;47.78
10688;BME280;5392;42.688;23.298;2023-07-31T08:24:10;57240.19;;;-144.48;49.11
10688;BME280;5392;42.688;23.298;2023-07-31T08:26:37;57227.66;;;-144.48;49.85
10688;BME280;5392;42.688;23.298;2023-07-31T08:29:04;57227.66;;;-144.48;50.87
10688;BME280;5392;42.688;23.298;2023-07-31T08:31:31;57273.56;;;-144.48;52.08
10688;BME280;5392;42.688;23.298;2023-07-31T08:33:58;57271.50;;;-144.48;50.89
10688;BME280;5392;42.688;23.298;2023-07-31T08:36:25;57210.97;;;-144.48;48.95
10688;BME280;5392;42.688;23.298;2023-07-31T08:38:55;57227.66;;;-144.48;47.71
10688;BME280;5392;42.688;23.298;2023-07-31T08:41:22;57204.69;;;-144.48;46.96
10688;BME280;5392;42.688;23.298;2023-07-31T08:43:53;57236.00;;;-144.48;48.46
10688;BME280;5392;42.688;23.298;2023-07-31T08:46:21;57233.91;;;-144.48;49.25
10688;BME280;5392;42.688;23.298;2023-07-31T08:48:49;57267.31;;;-144.48;48.40
10688;BME280;5392;42.688;23.298;2023-07-31T08:51:17;57210.97;;;-144.48;48.66
10688;BME280;5392;42.688;23.298;2023-07-31T08:53:44;57229.75;;;-144.48;50.17
10688;BME280;5392;42.688;23.298;2023-07-31T08:56:11;57267.31;;;-144.48;49.21
10688;BME280;5392;42.688;23.298;2023-07-31T08:58:40;57296.53;;;-144.48;47.83
10688;BME280;5392;42.688;23.298;2023-07-31T09:01:07;57227.66;;;-144.48;47.77
10688;BME280;5392;42.688;23.298;2023-07-31T09:03:34;57204.69;;;-144.48;46.70
10688;BME280;5392;42.688;23.298;2023-07-31T09:06:03;57233.91;;;-144.48;47.07
10688;BME280;5392;42.688;23.298;2023-07-31T09:08:32;57242.28;;;-144.48;47.76
10688;BME280;5392;42.688;23.298;2023-07-31T09:11:00;57206.78;;;-144.48;47.11
10688;BME280;5392;42.688;23.298;2023-07-31T09:13:30;57229.75;;;-144.48;47.37
10688;BME280;5392;42.688;23.298;2023-07-31T09:15:58;57213.06;;;-144.48;46.81
10688;BME280;5392;42.688;23.298;2023-07-31T09:18:24;57225.56;;;-144.48;46.30
10688;BME280;5392;42.688;23.298;2023-07-31T09:21:04;57213.06;;;-144.48;46.21
10688;BME280;5392;42.688;23.298;2023-07-31T09:26:09;57223.50;;;-144.48;49.48
10688;BME280;5392;42.688;23.298;2023-07-31T09:28:36;57267.31;;;-144.48;50.45
10688;BME280;5392;42.688;23.298;2023-07-31T09:31:03;57252.72;;;-144.48;50.38
10688;BME280;5392;42.688;23.298;2023-07-31T09:33:30;57265.22;;;-144.48;49.34
10688;BME280;5392;42.688;23.298;2023-07-31T09:35:58;57227.66;;;-144.48;49.51
10688;BME280;5392;42.688;23.298;2023-07-31T09:38:27;57233.91;;;-144.48;48.75
10688;BME280;5392;42.688;23.298;2023-07-31T09:40:53;57261.06;;;-144.48;48.55
10688;BME280;5392;42.688;23.298;2023-07-31T09:43:21;57267.31;;;-144.48;48.07
10688;BME280;5392;42.688;23.298;2023-07-31T09:45:54;57244.34;;;-144.48;47.86
10688;BME280;5392;42.688;23.298;2023-07-31T09:48:24;57233.91;;;-144.48;47.43
10688;BME280;5392;42.688;23.298;2023-07-31T09:50:54;57244.34;;;-144.48;48.38
10688;BME280;5392;42.688;23.298;2023-07-31T09:53:28;57238.09;;;-144.48;48.68
10688;BME280;5392;42.688;23.298;2023-07-31T09:55:58;57263.16;;;-144.48;48.26
10688;BME280;5392;42.688;23.298;2023-07-31T09:58:28;57194.25;;;-144.48;47.73
10688;BME280;5392;42.688;23.298;2023-07-31T10:00:57;57225.56;;;-144.48;47.10
10688;BME280;5392;42.688;23.298;2023-07-31T10:03:25;57221.41;;;-144.48;46.93
10688;BME280;5392;42.688;23.298;2023-07-31T10:05:55;57213.06;;;-144.48;47.36
10688;BME280;5392;42.688;23.298;2023-07-31T10:08:28;57225.56;;;-144.48;47.44
10688;BME280;5392;42.688;23.298;2023-07-31T10:10:59;57229.75;;;-144.48;47.41
10688;BME280;5392;42.688;23.298;2023-07-31T10:13:27;57221.41;;;-144.48;48.06
10688;BME280;5392;42.688;23.298;2023-07-31T10:15:59;57271.50;;;-144.48;48.85
10688;BME280;5392;42.688;23.298;2023-07-31T10:18:26;57213.06;;;-144.48;48.34
10688;BME280;5392;42.688;23.298;2023-07-31T10:20:54;57221.41;;;-144.48;47.85
10688;BME280;5392;42.688;23.298;2023-07-31T10:23:22;57210.97;;;-144.48;47.12
10688;BME280;5392;42.688;23.298;2023-07-31T10:25:53;57238.09;;;-144.48;46.73
10688;BME280;5392;42.688;23.298;2023-07-31T10:28:21;57250.63;;;-144.48;48.01
10688;BME280;5392;42.688;23.298;2023-07-31T10:30:49;57231.84;;;-144.48;48.88
10688;BME280;5392;42.688;23.298;2023-07-31T10:33:17;57261.06;;;-144.48;49.78
10688;BME280;5392;42.688;23.298;2023-07-31T10:35:47;57275.66;;;-144.48;49.33
10688;BME280;5392;42.688;23.298;2023-07-31T10:38:15;57258.97;;;-144.48;49.23
10688;BME280;5392;42.688;23.298;2023-07-31T10:40:42;57292.38;;;-144.48;48.61
10688;BME280;5392;42.688;23.298;2023-07-31T10:43:09;57250.63;;;-144.48;48.42
10688;BME280;5392;42.688;23.298;2023-07-31T10:45:51;57231.84;;;-144.48;48.78
10688;BME280;5392;42.688;23.298;2023-07-31T10:48:20;57273.56;;;-144.48;49.06
10688;BME280;5392;42.688;23.298;2023-07-31T10:50:54;57254.78;;;-144.48;49.39
10688;BME280;5392;42.688;23.298;2023-07-31T10:53:32;57267.31;;;-144.48;48.86
10688;BME280;5392;42.688;23.298;2023-07-31T10:56:00;57256.88;;;-144.48;48.13
10688;BME280;5392;42.688;23.298;2023-07-31T10:58:27;57215.13;;;-144.48;47.18
10688;BME280;5392;42.688;23.298;2023-07-31T11:00:59;57250.63;;;-144.48;46.58
10688;BME280;5392;42.688;23.298;2023-07-31T11:03:40;57221.41;;;-144.48;46.95
10688;BME280;5392;42.688;23.298;2023-07-31T11:06:09;57238.09;;;-144.48;47.41
10688;BME280;5392;42.688;23.298;2023-07-31T11:08:44;57238.09;;;-144.48;47.38
10688;BME280;5392;42.688;23.298;2023-07-31T11:11:13;57217.22;;;-144.48;46.83
10688;BME280;5392;42.688;23.298;2023-07-31T11:13:47;57208.88;;;-144.48;47.10
10688;BME280;5392;42.688;23.298;2023-07-31T11:16:23;57217.22;;;-144.48;46.91
10688;BME280;5392;42.688;23.298;2023-07-31T11:18:51;57196.34;;;-144.48;46.65
10688;BME280;5392;42.688;23.298;2023-07-31T11:21:24;57254.78;;;-144.48;46.48
10688;BME280;5392;42.688;23.298;2023-07-31T11:23:57;57196.34;;;-144.48;46.23
10688;BME280;5392;42.688;23.298;2023-07-31T11:26:27;57223.50;;;-144.48;45.86
10688;BME280;5392;42.688;23.298;2023-07-31T11:28:54;57200.53;;;-144.48;46.05
10688;BME280;5392;42.688;23.298;2023-07-31T11:31:21;57208.88;;;-144.48;45.43
10688;BME280;5392;42.688;23.298;2023-07-31T11:33:48;57213.06;;;-144.48;47.00
10688;BME280;5392;42.688;23.298;2023-07-31T11:36:19;57242.28;;;-144.48;47.62
10688;BME280;5392;42.688;23.298;2023-07-31T11:38:46;57217.22;;;-144.48;48.23
10688;BME280;5392;42.688;23.298;2023-07-31T11:41:15;57263.16;;;-144.48;48.03
10688;BME280;5392;42.688;23.298;2023-07-31T11:43:43;57254.78;;;-144.48;47.96
10688;BME280;5392;42.688;23.298;2023-07-31T11:46:10;57252.72;;;-144.48;48.10
10688;BME280;5392;42.688;23.298;2023-07-31T11:48:37;57225.56;;;-144.48;47.91
10688;BME280;5392;42.688;23.298;2023-07-31T11:51:08;57250.63;;;-144.48;47.41
10688;BME280;5392;42.688;23.298;2023-07-31T11:53:46;57242.28;;;-144.48;47.62
10688;BME280;5392;42.688;23.298;2023-07-31T11:56:17;57242.28;;;-144.48;47.53
10688;BME280;5392;42.688;23.298;2023-07-31T11:58:46;57248.53;;;-144.48;47.61
10688;BME280;5392;42.688;23.298;2023-07-31T12:01:15;57246.44;;;-144.48;47.61
10688;BME280;5392;42.688;23.298;2023-07-31T12:03:45;57233.91;;;-144.48;48.03
10688;BME280;5392;42.688;23.298;2023-07-31T12:06:13;57265.22;;;-144.48;48.93
10688;BME280;5392;42.688;23.298;2023-07-31T12:08:39;57225.56;;;-144.48;49.45
10688;BME280;5392;42.688;23.298;2023-07-31T12:11:08;57256.88;;;-144.48;49.09
10688;BME280;5392;42.688;23.298;2023-07-31T12:13:40;57244.34;;;-144.48;48.21
10688;BME280;5392;42.688;23.298;2023-07-31T12:16:06;57219.31;;;-144.48;47.21
10688;BME280;5392;42.688;23.298;2023-07-31T12:18:35;57246.44;;;-144.48;47.08
10688;BME280;5392;42.688;23.298;2023-07-31T12:21:05;57213.06;;;-144.48;47.49
10688;BME280;5392;42.688;23.298;2023-07-31T12:23:33;57210.97;;;-144.48;47.43
10688;BME280;5392;42.688;23.298;2023-07-31T12:26:11;57233.91;;;-144.48;47.18
10688;BME280;5392;42.688;23.298;2023-07-31T12:31:21;57192.19;;;-144.48;46.51
10688;BME280;5392;42.688;23.298;2023-07-31T12:33:50;57246.44;;;-144.48;46.29
10688;BME280;5392;42.688;23.298;2023-07-31T12:36:20;57217.22;;;-144.48;45.87
10688;BME280;5392;42.688;23.298;2023-07-31T12:38:47;57196.34;;;-144.48;46.58
10688;BME280;5392;42.688;23.298;2023-07-31T12:41:14;57250.63;;;-144.48;46.96
10688;BME280;5392;42.688;23.298;2023-07-31T12:43:43;57208.88;;;-144.48;47.05
10688;BME280;5392;42.688;23.298;2023-07-31T12:46:10;57217.22;;;-144.48;47.07